createdAt,value
2023-04-11T00:02:06.271Z,100295.63
2023-04-11T00:04:34.551Z,100309.44
2023-04-11T00:07:01.687Z,100325.09
2023-04-11T00:09:29.604Z,100322.69
2023-04-11T00:11:59.661Z,100319.00
2023-04-11T00:14:29.734Z,100311.47
2023-04-11T00:16:56.846Z,100321.84
2023-04-11T00:19:28.291Z,100331.00
2023-04-11T00:21:58.935Z,100326.66
2023-04-11T00:24:39.749Z,100295.38
2023-04-11T00:27:09.128Z,100303.78
2023-04-11T00:29:37.578Z,100315.88
2023-04-11T00:32:06.793Z,100312.66
2023-04-11T00:34:43.367Z,100299.72
2023-04-11T00:37:12.979Z,100306.72
2023-04-11T00:39:53.288Z,100311.63
2023-04-11T00:42:23.310Z,100315.22
2023-04-11T00:44:53.911Z,100306.84
2023-04-11T00:47:20.798Z,100303.59
2023-04-11T00:49:51.836Z,100298.28
2023-04-11T00:52:23.684Z,100282.19
2023-04-11T00:54:51.473Z,100273.59
2023-04-11T00:57:22.805Z,100285.38
2023-04-11T00:59:54.592Z,100285.81
2023-04-11T01:02:21.413Z,100276.91
2023-04-11T01:04:51.722Z,100291.69
2023-04-11T01:07:20.331Z,100300.84
2023-04-11T01:09:47.791Z,100284.69
2023-04-11T01:12:16.007Z,100309.75
2023-04-11T01:14:49.945Z,100322.97
2023-04-11T01:17:17.557Z,100318.69
2023-04-11T01:19:44.330Z,100322.78
2023-04-11T01:22:13.174Z,100317.16
2023-04-11T01:24:40.036Z,100335.50
2023-04-11T01:27:07.404Z,100337.09
2023-04-11T01:29:37.540Z,100347.84
2023-04-11T01:32:06.228Z,100352.16
2023-04-11T01:34:34.031Z,100344.63
2023-04-11T01:37:04.793Z,100347.38
2023-04-11T01:39:31.849Z,100339.31
2023-04-11T01:42:03.630Z,100343.63
2023-04-11T01:44:33.387Z,100351.16
2023-04-11T01:47:03.491Z,100345.53
2023-04-11T01:49:30.925Z,100344.97
2023-04-11T01:51:58.523Z,100340.97
2023-04-11T01:54:32.915Z,100351.19
2023-04-11T01:57:07.062Z,100352.81
2023-04-11T01:59:37.898Z,100355.25
2023-04-11T02:02:05.919Z,100343.94
2023-04-11T02:04:32.966Z,100335.88
2023-04-11T02:06:59.567Z,100342.59
2023-04-11T02:09:26.414Z,100339.88
2023-04-11T02:11:57.090Z,100333.41
2023-04-11T02:14:25.295Z,100335.56
2023-04-11T02:16:56.608Z,100333.94
2023-04-11T02:19:26.398Z,100341.50
2023-04-11T02:21:58.522Z,100342.06
2023-04-11T02:24:25.339Z,100326.47
2023-04-11T02:26:52.041Z,100326.22
2023-04-11T02:29:19.348Z,100330.81
2023-04-11T02:31:52.647Z,100343.69
2023-04-11T02:34:29.869Z,100341.31
2023-04-11T02:37:07.085Z,100348.56
2023-04-11T02:39:46.865Z,100356.38
2023-04-11T02:42:41.379Z,100354.28
2023-04-11T02:45:11.843Z,100350.84
2023-04-11T02:47:42.435Z,100368.63
2023-04-11T02:50:10.530Z,100350.91
2023-04-11T02:52:48.270Z,100346.06
2023-04-11T02:55:18.462Z,100341.78
2023-04-11T02:57:45.643Z,100344.22
2023-04-11T03:00:14.625Z,100362.78
2023-04-11T03:02:47.458Z,100359.53
2023-04-11T03:05:19.474Z,100371.88
2023-04-11T03:07:57.960Z,100373.47
2023-04-11T03:10:29.263Z,100375.84
2023-04-11T03:12:57.520Z,100370.44
2023-04-11T03:15:25.082Z,100376.56
2023-04-11T03:17:51.907Z,100379.25
2023-04-11T03:20:19.808Z,100389.44
2023-04-11T03:22:49.954Z,100394.56
2023-04-11T03:25:18.551Z,100399.66
2023-04-11T03:27:47.241Z,100401.50
2023-04-11T03:30:14.858Z,100400.16
2023-04-11T03:32:47.129Z,100387.00
2023-04-11T03:35:14.870Z,100384.53
2023-04-11T03:37:45.744Z,100387.97
2023-04-11T03:40:13.127Z,100375.81
2023-04-11T03:42:46.412Z,100374.72
2023-04-11T03:45:20.822Z,100361.34
2023-04-11T03:47:52.868Z,100376.81
2023-04-11T03:50:27.214Z,100377.84
2023-04-11T03:52:58.656Z,100390.41
2023-04-11T03:55:26.114Z,100397.97
2023-04-11T03:57:57.119Z,100415.34
2023-04-11T04:00:25.471Z,100409.91
2023-04-11T04:03:01.325Z,100397.81
2023-04-11T04:05:31.382Z,100409.31
2023-04-11T04:08:00.135Z,100404.22
2023-04-11T04:10:39.322Z,100409.91
2023-04-11T04:13:06.069Z,100394.41
2023-04-11T04:15:37.657Z,100389.22
2023-04-11T04:18:06.608Z,100377.38
2023-04-11T04:20:47.606Z,100350.22
2023-04-11T04:23:17.995Z,100349.88
2023-04-11T04:26:02.294Z,100356.56
2023-04-11T04:28:31.918Z,100364.28
2023-04-11T04:31:05.079Z,100373.66
2023-04-11T04:33:42.980Z,100383.59
2023-04-11T04:36:22.048Z,100404.81
2023-04-11T04:38:53.231Z,100412.59
2023-04-11T04:41:22.923Z,100418.28
2023-04-11T04:43:59.177Z,100411.88
2023-04-11T04:46:37.369Z,100425.03
2023-04-11T04:49:06.606Z,100411.97
2023-04-11T04:51:48.133Z,100394.78
2023-04-11T04:54:19.745Z,100407.63
2023-04-11T04:56:48.419Z,100399.06
2023-04-11T04:59:16.481Z,100404.16
2023-04-11T05:01:50.926Z,100406.88
2023-04-11T05:04:24.119Z,100416.47
2023-04-11T05:06:55.350Z,100415.50
2023-04-11T05:09:23.342Z,100425.44
2023-04-11T05:11:52.323Z,100446.13
2023-04-11T05:14:21.692Z,100435.97
2023-04-11T05:16:48.857Z,100442.44
2023-04-11T05:19:15.693Z,100436.03
2023-04-11T05:21:46.385Z,100433.91
2023-04-11T05:24:13.498Z,100429.34
2023-04-11T05:26:40.538Z,100435.78
2023-04-11T05:29:07.854Z,100446.81
2023-04-11T05:31:34.639Z,100446.28
2023-04-11T05:34:02.587Z,100446.28
2023-04-11T05:36:29.875Z,100449.75
2023-04-11T05:38:56.666Z,100456.50
2023-04-11T05:41:24.667Z,100461.06
2023-04-11T05:43:51.417Z,100464.31
2023-04-11T05:46:18.447Z,100465.09
2023-04-11T05:48:45.485Z,100467.53
2023-04-11T05:51:12.409Z,100466.25
2023-04-11T05:53:39.637Z,100469.97
2023-04-11T05:56:06.769Z,100474.81
2023-04-11T05:58:34.624Z,100473.22
2023-04-11T06:01:01.466Z,100485.59
2023-04-11T06:03:28.376Z,100485.06
2023-04-11T06:05:57.560Z,100493.69
2023-04-11T06:08:24.392Z,100504.16
2023-04-11T06:10:51.079Z,100500.97
2023-04-11T06:13:18.219Z,100500.72
2023-04-11T06:15:44.912Z,100504.25
2023-04-11T06:18:13.071Z,100501.28
2023-04-11T06:20:40.106Z,100513.66
2023-04-11T06:23:07.064Z,100511.78
2023-04-11T06:25:33.680Z,100509.09
2023-04-11T06:28:00.421Z,100510.44
2023-04-11T06:30:27.456Z,100512.41
2023-04-11T06:32:54.276Z,100524.47
2023-04-11T06:35:24.823Z,100522.63
2023-04-11T06:37:52.349Z,100521.03
2023-04-11T06:40:23.270Z,100520.78
2023-04-11T06:42:50.011Z,100526.97
2023-04-11T06:45:19.415Z,100536.38
2023-04-11T06:47:46.166Z,100538.50
2023-04-11T06:50:13.259Z,100534.44
2023-04-11T06:52:40.124Z,100552.19
2023-04-11T06:55:07.767Z,100548.22
2023-04-11T06:57:34.979Z,100541.50
2023-04-11T07:00:02.295Z,100553.09
2023-04-11T07:02:29.383Z,100555.13
2023-04-11T07:04:57.398Z,100558.47
2023-04-11T07:07:24.324Z,100576.69
2023-04-11T07:09:51.254Z,100576.06
2023-04-11T07:12:17.985Z,100574.03
2023-04-11T07:14:44.636Z,100574.75
2023-04-11T07:17:11.346Z,100571.66
2023-04-11T07:19:37.997Z,100577.63
2023-04-11T07:22:04.827Z,100573.94
2023-04-11T07:24:31.572Z,100571.28
2023-04-11T07:26:59.273Z,100579.38
2023-04-11T07:29:26.023Z,100584.78
2023-04-11T07:31:53.254Z,100579.94
2023-04-11T07:34:20.769Z,100573.44
2023-04-11T07:36:48.024Z,100575.34
2023-04-11T07:39:15.346Z,100578.84
2023-04-11T07:41:42.183Z,100584.25
2023-04-11T07:44:11.761Z,100581.00
2023-04-11T07:46:38.713Z,100594.47
2023-04-11T07:49:05.615Z,100596.09
2023-04-11T07:51:33.145Z,100589.63
2023-04-11T07:54:00.199Z,100602.03
2023-04-11T07:56:27.267Z,100607.94
2023-04-11T07:58:54.665Z,100603.06
2023-04-11T08:01:25.804Z,100599.31
2023-04-11T08:03:56.766Z,100603.63
2023-04-11T08:06:24.136Z,100600.13
2023-04-11T08:08:51.299Z,100603.59
2023-04-11T08:11:18.153Z,100596.88
2023-04-11T08:13:45.414Z,100601.19
2023-04-11T08:16:15.883Z,100598.78
2023-04-11T08:18:42.890Z,100600.38
2023-04-11T08:21:11.670Z,100601.47
2023-04-11T08:23:42.587Z,100593.38
2023-04-11T08:26:10.752Z,100598.78
2023-04-11T08:28:38.208Z,100595.53
2023-04-11T08:31:06.195Z,100596.91
2023-04-11T08:33:33.607Z,100604.81
2023-04-11T08:36:00.917Z,100596.28
2023-04-11T08:38:27.860Z,100604.13
2023-04-11T08:40:55.516Z,100606.25
2023-04-11T08:43:25.958Z,100615.22
2023-04-11T08:45:53.745Z,100618.06
2023-04-11T08:48:25.501Z,100604.47
2023-04-11T08:50:52.752Z,100604.16
2023-04-11T08:53:22.811Z,100600.19
2023-04-11T08:55:49.636Z,100589.09
2023-04-11T08:58:17.652Z,100585.91
2023-04-11T09:00:44.930Z,100587.78
2023-04-11T09:03:13.408Z,100581.63
2023-04-11T09:05:43.524Z,100581.94
2023-04-11T09:08:12.850Z,100568.22
2023-04-11T09:10:43.300Z,100568.88
2023-04-11T09:13:26.794Z,100575.97
2023-04-11T09:16:09.474Z,100576.03
2023-04-11T09:18:47.436Z,100564.28
2023-04-11T09:21:16.940Z,100565.69
2023-04-11T09:23:44.251Z,100563.97
2023-04-11T09:26:12.953Z,100550.78
2023-04-11T09:28:52.865Z,100566.78
2023-04-11T09:31:41.934Z,100552.06
2023-04-11T09:34:10.166Z,100564.03
2023-04-11T09:36:37.304Z,100586.22
2023-04-11T09:39:19.902Z,100596.66
2023-04-11T09:41:48.628Z,100595.66
2023-04-11T09:44:19.031Z,100596.22
2023-04-11T09:46:59.923Z,100604.13
2023-04-11T09:49:27.977Z,100595.75
2023-04-11T09:51:56.856Z,100585.81
2023-04-11T09:54:24.467Z,100585.72
2023-04-11T09:56:51.262Z,100579.41
2023-04-11T09:59:21.360Z,100579.34
2023-04-11T10:01:52.059Z,100585.19
2023-04-11T10:04:20.540Z,100586.75
2023-04-11T10:07:05.086Z,100597.75
2023-04-11T10:09:33.351Z,100606.66
2023-04-11T10:12:02.086Z,100611.41
2023-04-11T10:14:41.013Z,100620.84
2023-04-11T10:17:20.624Z,100611.00
2023-04-11T10:19:50.079Z,100619.84
2023-04-11T10:22:51.254Z,100611.44
2023-04-11T10:25:20.026Z,100597.69
2023-04-11T10:27:55.146Z,100597.56
2023-04-11T10:30:42.116Z,100586.69
2023-04-11T10:33:14.722Z,100590.22
2023-04-11T10:36:00.741Z,100579.66
2023-04-11T10:38:48.857Z,100591.13
2023-04-11T10:41:32.102Z,100599.22
2023-04-11T10:44:25.050Z,100620.22
2023-04-11T10:46:54.427Z,100626.19
2023-04-11T10:49:40.527Z,100605.16
2023-04-11T10:52:24.179Z,100604.66
2023-04-11T10:54:53.712Z,100597.06
2023-04-11T10:57:22.989Z,100588.50
2023-04-11T10:59:50.555Z,100584.38
2023-04-11T11:02:29.657Z,100576.53
2023-04-11T11:05:21.575Z,100567.34
2023-04-11T11:08:26.360Z,100547.84
2023-04-11T11:10:56.835Z,100555.91
2023-04-11T11:13:49.468Z,100560.38
2023-04-11T11:16:22.322Z,100564.97
2023-04-11T11:18:51.857Z,100554.56
2023-04-11T11:21:30.608Z,100550.75
2023-04-11T11:23:59.530Z,100556.81
2023-04-11T11:26:40.577Z,100557.97
2023-04-11T11:29:12.937Z,100566.75
2023-04-11T11:31:45.849Z,100584.97
2023-04-11T11:36:47.008Z,100600.88
2023-04-11T11:39:16.652Z,100617.47
2023-04-11T11:41:43.438Z,100627.22
2023-04-11T11:44:27.738Z,100623.81
2023-04-11T11:47:07.508Z,100617.19
2023-04-11T11:50:00.517Z,100617.13
2023-04-11T11:52:40.697Z,100619.13
2023-04-11T11:55:20.198Z,100601.41
2023-04-11T11:57:52.320Z,100593.97
2023-04-11T12:00:25.200Z,100600.81
2023-04-11T12:02:53.282Z,100595.69
2023-04-11T12:05:20.774Z,100589.63
2023-04-11T12:07:53.334Z,100585.38
2023-04-11T12:10:20.490Z,100583.50
2023-04-11T12:12:53.604Z,100587.06
2023-04-11T12:15:24.043Z,100576.84
2023-04-11T12:17:53.163Z,100578.22
2023-04-11T12:20:27.577Z,100572.09
2023-04-11T12:22:55.425Z,100572.91
2023-04-11T12:25:22.684Z,100573.84
2023-04-11T12:27:49.756Z,100566.16
2023-04-11T12:30:16.491Z,100571.25
2023-04-11T12:32:45.101Z,100563.94
2023-04-11T12:35:13.020Z,100569.13
2023-04-11T12:37:40.026Z,100565.97
2023-04-11T12:40:13.055Z,100574.78
2023-04-11T12:45:11.782Z,100558.31
2023-04-11T12:47:39.094Z,100565.78
2023-04-11T12:50:07.258Z,100570.72
2023-04-11T12:52:37.660Z,100564.97
2023-04-11T12:55:22.117Z,100570.53
2023-04-11T12:57:52.027Z,100566.91
2023-04-11T13:00:19.616Z,100565.31
2023-04-11T13:03:14.481Z,100555.75
2023-04-11T13:05:43.982Z,100552.66
2023-04-11T13:08:11.282Z,100555.34
2023-04-11T13:10:38.528Z,100562.84
2023-04-11T13:13:17.520Z,100564.50
2023-04-11T13:15:46.373Z,100558.16
2023-04-11T13:18:13.354Z,100559.59
2023-04-11T13:20:40.188Z,100554.28
2023-04-11T13:23:07.016Z,100549.16
2023-04-11T13:25:34.025Z,100547.03
2023-04-11T13:28:01.108Z,100539.84
2023-04-11T13:30:28.393Z,100559.34
2023-04-11T13:32:55.609Z,100543.97
2023-04-11T13:35:23.108Z,100546.88
2023-04-11T13:37:51.910Z,100533.78
2023-04-11T13:40:19.067Z,100539.53
2023-04-11T13:42:47.280Z,100537.78
2023-04-11T13:45:23.740Z,100536.50
2023-04-11T13:47:52.455Z,100552.13
2023-04-11T13:50:20.927Z,100558.47
2023-04-11T13:52:48.022Z,100552.13
2023-04-11T13:55:19.643Z,100560.09
2023-04-11T13:57:47.255Z,100564.75
2023-04-11T14:00:16.558Z,100560.91
2023-04-11T14:02:44.945Z,100566.69
2023-04-11T14:05:13.161Z,100559.94
2023-04-11T14:07:41.889Z,100560.31
2023-04-11T14:10:11.492Z,100555.03
2023-04-11T14:12:39.780Z,100554.13
2023-04-11T14:15:08.288Z,100555.94
2023-04-11T14:17:35.229Z,100553.50
2023-04-11T14:20:02.476Z,100565.75
2023-04-11T14:22:29.402Z,100555.94
2023-04-11T14:24:56.515Z,100564.88
2023-04-11T14:27:23.326Z,100564.06
2023-04-11T14:29:50.199Z,100562.19
2023-04-11T14:32:18.343Z,100548.06
2023-04-11T14:34:46.381Z,100555.00
2023-04-11T14:37:13.342Z,100553.50
2023-04-11T14:39:41.864Z,100553.41
2023-04-11T14:42:12.441Z,100565.72
2023-04-11T14:44:39.897Z,100566.56
2023-04-11T14:47:09.838Z,100553.53
2023-04-11T14:49:38.064Z,100543.09
2023-04-11T14:52:05.109Z,100553.53
2023-04-11T14:54:31.998Z,100544.25
2023-04-11T14:57:00.542Z,100559.66
2023-04-11T14:59:28.258Z,100553.66
2023-04-11T15:01:55.280Z,100551.25
2023-04-11T15:04:24.108Z,100549.94
2023-04-11T15:06:51.393Z,100547.25
2023-04-11T15:09:21.098Z,100550.50
2023-04-11T15:11:48.821Z,100545.16
2023-04-11T15:14:16.338Z,100535.47
2023-04-11T15:16:44.345Z,100536.34
2023-04-11T15:19:11.186Z,100524.16
2023-04-11T15:21:38.611Z,100530.13
2023-04-11T15:24:07.726Z,100527.44
2023-04-11T15:26:40.579Z,100527.09
2023-04-11T15:29:14.933Z,100528.31
2023-04-11T15:32:02.356Z,100530.00
2023-04-11T15:34:32.109Z,100524.69
2023-04-11T15:37:00.416Z,100527.13
2023-04-11T15:39:27.204Z,100527.19
2023-04-11T15:41:53.971Z,100527.69
2023-04-11T15:44:23.772Z,100523.75
2023-04-11T15:47:07.947Z,100528.38
2023-04-11T15:49:44.159Z,100523.84
2023-04-11T15:52:11.985Z,100527.66
2023-04-11T15:54:41.735Z,100524.69
2023-04-11T15:57:08.566Z,100519.06
2023-04-11T15:59:40.761Z,100515.84
2023-04-11T16:02:08.906Z,100523.28
2023-04-11T16:04:39.283Z,100519.25
2023-04-11T16:07:09.573Z,100519.84
2023-04-11T16:09:37.872Z,100513.53
2023-04-11T16:12:04.937Z,100517.03
2023-04-11T16:14:31.709Z,100516.31
2023-04-11T16:16:59.711Z,100509.19
2023-04-11T16:19:29.970Z,100525.84
2023-04-11T16:22:06.044Z,100519.63
2023-04-11T16:24:34.915Z,100521.25
2023-04-11T16:27:02.683Z,100523.47
2023-04-11T16:29:35.443Z,100513.44
2023-04-11T16:32:02.736Z,100528.03
2023-04-11T16:34:30.085Z,100527.19
2023-04-11T16:36:57.195Z,100516.13
2023-04-11T16:39:24.249Z,100508.81
2023-04-11T16:41:51.250Z,100509.84
2023-04-11T16:44:18.314Z,100515.91
2023-04-11T16:46:45.160Z,100506.28
2023-04-11T16:49:13.301Z,100511.97
2023-04-11T16:51:40.095Z,100506.03
2023-04-11T16:54:10.383Z,100499.19
2023-04-11T16:56:37.547Z,100503.06
2023-04-11T16:59:05.134Z,100492.38
2023-04-11T17:01:32.046Z,100496.84
2023-04-11T17:03:59.143Z,100490.97
2023-04-11T17:06:27.353Z,100490.53
2023-04-11T17:08:54.393Z,100486.81
2023-04-11T17:11:21.843Z,100487.75
2023-04-11T17:13:49.574Z,100491.88
2023-04-11T17:16:19.819Z,100487.63
2023-04-11T17:18:47.199Z,100487.72
2023-04-11T17:21:14.002Z,100490.25
2023-04-11T17:23:43.007Z,100494.38
2023-04-11T17:26:11.413Z,100499.66
2023-04-11T17:28:42.443Z,100498.94
2023-04-11T17:31:20.303Z,100505.47
2023-04-11T17:33:47.413Z,100497.41
2023-04-11T17:36:18.274Z,100499.56
2023-04-11T17:38:45.690Z,100503.91
2023-04-11T17:41:14.808Z,100494.25
2023-04-11T17:43:44.013Z,100506.63
2023-04-11T17:46:12.473Z,100503.91
2023-04-11T17:48:46.111Z,100498.84
2023-04-11T17:51:13.032Z,100507.19
2023-04-11T17:53:39.900Z,100501.81
2023-04-11T17:56:07.890Z,100499.66
2023-04-11T17:58:35.418Z,100497.53
2023-04-11T18:01:04.513Z,100510.22
2023-04-11T18:04:21.850Z,100509.94
2023-04-11T18:07:15.309Z,100506.78
2023-04-11T18:09:42.481Z,100505.75
2023-04-11T18:12:09.258Z,100510.91
2023-04-11T18:14:36.788Z,100508.47
2023-04-11T18:17:05.210Z,100509.84
2023-04-11T18:19:33.143Z,100506.91
2023-04-11T18:22:00.351Z,100503.16
2023-04-11T18:24:28.149Z,100506.91
2023-04-11T18:26:55.335Z,100505.84
2023-04-11T18:29:24.282Z,100504.31
2023-04-11T18:32:19.982Z,100508.91
2023-04-11T18:34:40.448Z,100498.44
2023-04-11T18:37:08.015Z,100504.09
2023-04-11T18:39:35.072Z,100504.38
2023-04-11T18:42:04.872Z,100501.16
2023-04-11T18:44:32.241Z,100496.88
2023-04-11T18:47:02.780Z,100495.56
2023-04-11T18:49:34.581Z,100496.91
2023-04-11T18:52:02.544Z,100495.84
2023-04-11T18:54:29.786Z,100507.75
2023-04-11T18:56:58.281Z,100509.91
2023-04-11T18:59:29.511Z,100512.06
2023-04-11T19:01:59.465Z,100506.41
2023-04-11T19:04:32.680Z,100502.94
2023-04-11T19:07:01.497Z,100501.34
2023-04-11T19:09:29.180Z,100504.03
2023-04-11T19:12:01.586Z,100494.88
2023-04-11T19:14:32.316Z,100497.00
2023-04-11T19:17:01.547Z,100500.25
2023-04-11T19:19:34.762Z,100492.97
2023-04-11T19:22:18.502Z,100494.31
2023-04-11T19:24:47.427Z,100482.50
2023-04-11T19:27:18.316Z,100494.63
2023-04-11T19:29:45.808Z,100485.22
2023-04-11T19:32:13.183Z,100485.72
2023-04-11T19:34:40.082Z,100483.84
2023-04-11T19:37:08.940Z,100491.13
2023-04-11T19:39:46.358Z,100487.91
2023-04-11T19:42:21.837Z,100482.78
2023-04-11T19:44:48.674Z,100479.56
2023-04-11T19:47:19.569Z,100477.66
2023-04-11T19:49:46.937Z,100483.31
2023-04-11T19:52:18.540Z,100470.13
2023-04-11T19:54:48.552Z,100467.44
2023-04-11T19:57:16.893Z,100459.88
2023-04-11T19:59:46.658Z,100461.53
2023-04-11T20:02:20.127Z,100463.69
2023-04-11T20:04:57.260Z,100457.19
2023-04-11T20:07:27.617Z,100451.28
2023-04-11T20:10:21.691Z,100454.50
2023-04-11T20:12:59.318Z,100448.03
2023-04-11T20:15:36.368Z,100438.94
2023-04-11T20:18:06.561Z,100445.91
2023-04-11T20:20:40.859Z,100436.75
2023-04-11T20:23:25.796Z,100441.63
2023-04-11T20:25:59.234Z,100428.66
2023-04-11T20:28:42.409Z,100424.91
2023-04-11T20:31:09.443Z,100431.88
2023-04-11T20:33:46.163Z,100415.75
2023-04-11T20:36:16.149Z,100410.91
2023-04-11T20:38:50.124Z,100408.75
2023-04-11T20:41:21.443Z,100404.72
2023-04-11T20:44:05.255Z,100404.47
2023-04-11T20:46:40.088Z,100400.16
2023-04-11T20:49:24.739Z,100397.19
2023-04-11T20:51:55.104Z,100400.69
2023-04-11T20:54:23.263Z,100389.91
2023-04-11T20:56:56.230Z,100385.34
2023-04-11T20:59:23.269Z,100382.94
2023-04-11T21:01:50.474Z,100370.00
2023-04-11T21:04:19.041Z,100382.38
2023-04-11T21:06:46.200Z,100373.50
2023-04-11T21:09:12.987Z,100370.53
2023-04-11T21:11:43.733Z,100364.06
2023-04-11T21:14:12.020Z,100361.38
2023-04-11T21:16:45.379Z,100364.34
2023-04-11T21:19:17.253Z,100357.63
2023-04-11T21:21:48.265Z,100350.63
2023-04-11T21:24:15.056Z,100354.41
2023-04-11T21:26:42.663Z,100346.34
2023-04-11T21:29:12.474Z,100336.69
2023-04-11T21:31:42.188Z,100342.09
2023-04-11T21:34:08.964Z,100338.34
2023-04-11T21:36:37.299Z,100330.31
2023-04-11T21:39:06.091Z,100337.81
2023-04-11T21:41:33.163Z,100321.16
2023-04-11T21:44:00.114Z,100316.81
2023-04-11T21:46:27.226Z,100318.41
2023-04-11T21:48:58.863Z,100310.88
2023-04-11T21:51:44.617Z,100307.66
2023-04-11T21:54:16.049Z,100301.72
2023-04-11T21:56:44.968Z,100302.81
2023-04-11T21:59:11.977Z,100304.44
2023-04-11T22:01:59.713Z,100301.72
2023-04-11T22:04:47.556Z,100291.81
2023-04-11T22:07:26.845Z,100283.00
2023-04-11T22:10:03.423Z,100286.84
2023-04-11T22:12:36.092Z,100289.03
2023-04-11T22:15:04.044Z,100285.84
2023-04-11T22:17:33.888Z,100290.69
2023-04-11T22:20:11.271Z,100281.56
2023-04-11T22:22:43.843Z,100270.56
2023-04-11T22:25:10.643Z,100269.75
2023-04-11T22:27:46.976Z,100257.44
2023-04-11T22:30:16.553Z,100256.38
2023-04-11T22:32:46.935Z,100256.09
2023-04-11T22:35:14.426Z,100251.03
2023-04-11T22:37:41.514Z,100255.31
2023-04-11T22:40:12.206Z,100254.78
2023-04-11T22:42:40.173Z,100250.47
2023-04-11T22:45:08.258Z,100245.91
2023-04-11T22:47:38.121Z,100241.88
2023-04-11T22:50:06.139Z,100241.34
2023-04-11T22:52:38.444Z,100229.50
2023-04-11T22:55:07.645Z,100231.13
2023-04-11T22:57:38.076Z,100228.72
2023-04-11T23:00:08.070Z,100223.06
2023-04-11T23:02:37.788Z,100220.66
2023-04-11T23:05:08.020Z,100218.25
2023-04-11T23:07:35.972Z,100210.19
2023-04-11T23:10:07.475Z,100206.41
2023-04-11T23:12:35.896Z,100199.16
2023-04-11T23:15:04.302Z,100196.22
2023-04-11T23:17:33.819Z,100203.72
2023-04-11T23:20:13.719Z,100191.41
2023-04-11T23:22:44.134Z,100196.75
2023-04-11T23:25:16.264Z,100190.31
2023-04-11T23:27:46.235Z,100196.47
2023-04-11T23:30:17.856Z,100190.81
2023-04-11T23:32:45.341Z,100196.69
2023-04-11T23:35:17.648Z,100197.69
2023-04-11T23:37:46.102Z,100194.44
2023-04-11T23:40:14.188Z,100194.44
2023-04-11T23:42:48.763Z,100188.53
2023-04-11T23:45:22.778Z,100195.84
2023-04-11T23:47:52.332Z,100192.91
2023-04-11T23:50:24.618Z,100187.00
2023-04-11T23:52:53.896Z,100190.22
2023-04-11T23:55:27.632Z,100188.63
2023-04-11T23:57:55.367Z,100190.28
